Purgatory, Colorado
Current Conditions -  °F | °C
As of 12:53 AM on Friday 28 Nov 2014 (Local Time) from KDRO Reporting Station
Clear Clear  
Wind Chill: 23°   Ceiling: Unl
Heat Index: 23°   Visibility: 10mi
Dew Point: 18°   Wind: 0mph
Humidity: 81%   Direction: NA
Pressure: 30.34"   Gusts: NA
Location:  37.1483°N, 107.911°W
Report Text: KDRO 280753Z AUTO 00000KT 10SM CLR M05/M08 A3034 RMK AO2 SLP275 T10501078
Loading
Personal Weather Stations






























Interactive Weather Map New forecast layout! Learn more

10-Day Weather Forecast

Advertisements
Track Severe Weather on mobile